Map

Track Data

SID SEASON NUMBER BASIN SUBBASIN NAME ISO_TIME NATURE LAT LON WMO_WIND WMO_PRES WMO_AGENCY TRACK_TYPE DIST2LAND LANDFALL IFLAG USA_AGENCY USA_ATCF_ID USA_LAT USA_LON USA_RECORD USA_STATUS USA_WIND USA_PRES USA_SSHS USA_R34_NE USA_R34_SE USA_R34_SW USA_R34_NW USA_R50_NE USA_R50_SE USA_R50_SW USA_R50_NW USA_R64_NE USA_R64_SE USA_R64_SW USA_R64_NW USA_POCI USA_ROCI USA_RMW USA_EYE TOKYO_LAT TOKYO_LON TOKYO_GRADE TOKYO_WIND TOKYO_PRES TOKYO_R50_DIR TOKYO_R50_LONG TOKYO_R50_SHORT TOKYO_R30_DIR TOKYO_R30_LONG TOKYO_R30_SHORT TOKYO_LAND CMA_LAT CMA_LON CMA_CAT CMA_WIND CMA_PRES HKO_LAT HKO_LON HKO_CAT HKO_WIND HKO_PRES NEWDELHI_LAT NEWDELHI_LON NEWDELHI_GRADE NEWDELHI_WIND NEWDELHI_PRES NEWDELHI_CI NEWDELHI_DP NEWDELHI_POCI REUNION_LAT REUNION_LON REUNION_TYPE REUNION_WIND REUNION_PRES REUNION_TNUM REUNION_CI REUNION_RMW REUNION_R34_NE REUNION_R34_SE REUNION_R34_SW REUNION_R34_NW REUNION_R50_NE REUNION_R50_SE REUNION_R50_SW REUNION_R50_NW REUNION_R64_NE REUNION_R64_SE REUNION_R64_SW REUNION_R64_NW BOM_LAT BOM_LON BOM_TYPE BOM_WIND BOM_PRES BOM_TNUM BOM_CI BOM_RMW BOM_R34_NE BOM_R34_SE BOM_R34_SW BOM_R34_NW BOM_R50_NE BOM_R50_SE BOM_R50_SW BOM_R50_NW BOM_R64_NE BOM_R64_SE BOM_R64_SW BOM_R64_NW BOM_ROCI BOM_POCI BOM_EYE BOM_POS_METHOD BOM_PRES_METHOD NADI_LAT NADI_LON NADI_CAT NADI_WIND NADI_PRES WELLINGTON_LAT WELLINGTON_LON WELLINGTON_WIND WELLINGTON_PRES DS824_LAT DS824_LON DS824_STAGE DS824_WIND DS824_PRES TD9636_LAT TD9636_LON TD9636_STAGE TD9636_WIND TD9636_PRES TD9635_LAT TD9635_LON TD9635_WIND TD9635_PRES TD9635_ROCI NEUMANN_LAT NEUMANN_LON NEUMANN_CLASS NEUMANN_WIND NEUMANN_PRES MLC_LAT MLC_LON MLC_CLASS MLC_WIND MLC_PRES USA_GUST BOM_GUST BOM_GUST_PER REUNION_GUST REUNION_GUST_PER USA_SEAHGT USA_SEARAD_NE USA_SEARAD_SE USA_SEARAD_SW USA_SEARAD_NW STORM_SPEED STORM_DIR
1996054N04149 1996 15 WP MM NOT_NAMED 1996-02-23 06:00:00 NR 4.00000 148.700 spur-merge 698 696 O_____________ jtwc_wp WP011996 4.00000 148.700 20 -1 1 257
1996054N04149 1996 15 WP MM NOT_NAMED 1996-02-23 09:00:00 NR 3.98750 148.638 spur-merge 696 696 P_____________ WP011996 3.98750 148.638 20 -1 1 270
1996054N04149 1996 15 WP MM NOT_NAMED 1996-02-23 12:00:00 NR 4.00000 148.600 spur-merge 696 696 O_____________ jtwc_wp WP011996 4.00000 148.600 20 -1 1 336
1996054N04149 1996 15 WP MM NOT_NAMED 1996-02-23 15:00:00 NR 4.05000 148.600 spur-merge 696 696 P_____________ WP011996 4.05000 148.600 20 -1 1 0
1996054N04149 1996 15 WP MM NOT_NAMED 1996-02-23 18:00:00 NR 4.10000 148.600 spur-merge 707 707 O_____________ jtwc_wp WP011996 4.10000 148.600 20 -1 1 317
1996054N04149 1996 15 WP MM NOT_NAMED 1996-02-23 21:00:00 NR 4.10000 148.558 spur-merge 707 705 P_____________ WP011996 4.10000 148.558 20 -1 1 270
1996054N04149 1996 15 WP MM NOT_NAMED 1996-02-24 00:00:00 NR 4.10000 148.500 spur-merge 705 705 O_____________ jtwc_wp WP011996 4.10000 148.500 20 -1 1 295
1996054N04149 1996 15 WP MM NOT_NAMED 1996-02-24 03:00:00 NR 4.15000 148.450 spur-merge 716 705 P_____________ WP011996 4.15000 148.450 20 -1 1 317
1996054N04149 1996 15 WP MM NOT_NAMED 1996-02-24 06:00:00 NR 4.20000 148.400 spur-merge 714 714 O_____________ jtwc_wp WP011996 4.20000 148.400 20 -1 1 297
1996054N04149 1996 15 WP MM NOT_NAMED 1996-02-24 09:00:00 NR 4.20000 148.350 spur-merge 714 713 P_____________ WP011996 4.20000 148.350 22 -1 1 270
1996054N04149 1996 15 WP MM NOT_NAMED 1996-02-24 12:00:00 NR 4.20000 148.300 spur-merge 713 713 O_____________ jtwc_wp WP011996 4.20000 148.300 25 -1 1 297
1996054N04149 1996 15 WP MM NOT_NAMED 1996-02-24 15:00:00 NR 4.25000 148.250 spur-merge 724 713 P_____________ WP011996 4.25000 148.250 25 -1 1 317
1996054N04149 1996 15 WP MM NOT_NAMED 1996-02-24 18:00:00 NR 4.30000 148.200 spur-merge 722 722 O_____________ jtwc_wp WP011996 4.30000 148.200 25 -1 1 301
1996054N04149 1996 15 WP MM NOT_NAMED 1996-02-24 21:00:00 NR 4.30750 148.150 spur-merge 722 721 P_____________ WP011996 4.30750 148.150 25 -1 1 270
1996054N04149 1996 15 WP MM NOT_NAMED 1996-02-25 00:00:00 NR 4.30000 148.100 spur-merge 721 721 O_____________ jtwc_wp WP011996 4.30000 148.100 25 -1 1 264
1996054N04149 1996 15 WP MM NOT_NAMED 1996-02-25 03:00:00 NR 4.29999 148.080 spur-merge 721 720 P_____________ WP011996 4.29999 148.080 25 -1 1 270
1996054N04149 1996 15 WP MM NOT_NAMED 1996-02-25 06:00:00 NR 4.30000 148.000 spur-merge 720 718 O_____________ jtwc_wp WP011996 4.30000 148.000 25 -1 3 263
1996054N04149 1996 15 WP MM NOT_NAMED 1996-02-25 09:00:00 NR 4.26250 147.795 spur-merge 718 717 P_____________ WP011996 4.26250 147.795 25 -1 5 270
1996054N04149 1996 15 WP MM NOT_NAMED 1996-02-25 12:00:00 NR 4.30000 147.500 spur-merge 717 717 O_____________ jtwc_wp WP011996 4.30000 147.500 25 -1 7 293
1996054N04149 1996 15 WP MM NOT_NAMED 1996-02-25 15:00:00 NR 4.51995 147.195 spur-merge 739 739 P_____________ WP011996 4.51995 147.195 25 -1 9 306
1996054N04149 1996 15 WP MM NOT_NAMED 1996-02-25 18:00:00 NR 4.80000 146.800 spur-merge 773 773 O_____________ jtwc_wp WP011996 4.80000 146.800 25 -1 10 298
1996054N04149 1996 15 WP MM NOT_NAMED 1996-02-25 21:00:00 NR 4.99998 146.295 spur-merge 796 796 P_____________ WP011996 4.99998 146.295 25 -1 12 290
1996054N04149 1996 15 WP MM NOT_NAMED 1996-02-26 00:00:00 NR 5.20000 145.700 spur-merge 824 824 O_____________ jtwc_wp WP011996 5.20000 145.700 25 -1 13 290
1996054N04149 1996 15 WP MM NOT_NAMED 1996-02-26 03:00:00 NR 5.44995 145.072 spur-merge 856 856 P_____________ WP011996 5.44995 145.072 25 -1 14 291
1996054N04149 1996 15 WP MM NOT_NAMED 1996-02-26 06:00:00 NR 5.70000 144.400 spur-merge 907 907 O_____________ jtwc_wp WP011996 5.70000 144.400 25 -1 14 288
1996054N04149 1996 15 WP MM NOT_NAMED 1996-02-26 09:00:00 NR 5.89235 143.730 spur-merge 952 952 P_____________ WP011996 5.89235 143.730 25 -1 15 286
1996054N04149 1996 15 WP MM NOT_NAMED 1996-02-26 12:00:00 NR 6.10000 143.000 spur-merge 994 991 O_____________ jtwc_wp WP011996 6.10000 143.000 25 -1 16 288
1996054N04149 1996 15 WP MM NOT_NAMED 1996-02-26 15:00:00 NR 6.38493 142.180 spur-merge 997 985 P_____________ WP011996 6.38493 142.180 25 -1 18 290
1996054N04149 1996 15 WP MM NOT_NAMED 1996-02-26 18:00:00 NR 6.70000 141.300 spur-merge 991 987 O_____________ jtwc_wp WP011996 6.70000 141.300 25 -1 19 289
1996054N04149 1996 15 WP MM NOT_NAMED 1996-02-26 21:00:00 NR 6.99237 140.407 spur-merge 994 990 P_____________ WP011996 6.99237 140.407 25 -1 19 289
1996054N04149 1996 15 WP MM NOT_NAMED 1996-02-27 00:00:00 NR 7.30000 139.500 spur-merge 991 985 O_____________ jtwc_wp WP011996 7.30000 139.500 25 -1 19 290
1996054N04149 1996 15 WP MM NOT_NAMED 1996-02-27 03:00:00 NR 7.66490 138.585 spur-merge 998 991 P_____________ WP011996 7.66490 138.585 25 -1 19 291
1996054N04149 1996 15 WP MM NOT_NAMED 1996-02-27 06:00:00 NR 8.00000 137.700 spur-merge 1002 999 O_____________ jtwc_wp WP011996 8.00000 137.700 25 -1 18 289
1996054N04149 1996 15 WP MM NOT_NAMED 1996-02-27 09:00:00 NR 8.22974 136.885 spur-merge 1007 1006 P_____________ WP011996 8.22974 136.885 22 -1 16 284
1996054N04149 1996 15 WP MM NOT_NAMED 1996-02-27 12:00:00 NR 8.40000 136.100 spur-merge 1021 963 O_____________ jtwc_wp WP011996 8.40000 136.100 20 -1 16 282
1996054N04149 1996 15 WP MM NOT_NAMED 1996-02-27 15:00:00 NR 8.56488 135.292 spur-merge 963 877 P_____________ WP011996 8.56488 135.292 20 -1 16 281
1996054N04149 1996 15 WP MM NOT_NAMED 1996-02-27 18:00:00 NR 8.70000 134.500 spur-merge 877 802 O_____________ jtwc_wp WP011996 8.70000 134.500 20 -1 16 279
1996054N04149 1996 15 WP MM NOT_NAMED 1996-02-27 21:00:00 NR 8.81481 133.742 spur-merge 791 717 P_____________ WP011996 8.81481 133.742 20 -1 15 278
1996054N04149 1996 15 WP MM NOT_NAMED 1996-02-28 00:00:00 NR 8.90000 133.000 spur-merge 717 644 O_____________ jtwc_wp WP011996 8.90000 133.000 20 -1 15 276
1996054N04149 1996 15 WP MM NOT_NAMED 1996-02-28 03:00:00 NR 8.95735 132.250 spur-merge 633 558 P_____________ WP011996 8.95783 132.253 20 -1 15 274
1996054N04149 1996 15 WP MM NOT_NAMED 1996-02-28 06:00:00 NR 9.00000 131.500 spur-merge 558 484 O_____________ jtwc_wp WP011996 9.00000 131.500 20 -1 15 273
1996054N04149 1996 15 WP MM NOT_NAMED 1996-02-28 09:00:00 NR 9.04243 130.735 spur-merge 474 ______________ WP011996 -1 15 273

Digital Typhoon Data and Search

About IBTrACS Database

This database is a web-friendly format of International Best Track Archive for Climate Stewardship (IBTrACS), a global best track data archive curated by NOAA dating back to 1842.

Updated: 2021-12-08